• Join FlightAware (Why Join?)
  • Login
  • US Flag 
11:14PM EDT


 

Airport Tracker/Info


-or-


 

Live Flight TrackerFlight Track Log ✈ BOE5 ✈ 06-Jun-2013 ✈ KBFI - KMWH

Flight Track Log - Related Links

Times and Time Zones

All times are in EDT time to prevent confusion due to time zone crossing. See the BOE5 flight status page for this flight to view local times or setup timezone preferences in your user account.

Time Position Orientation Groundspeed Altitude Reporting Facility
EDT Latitude Longitude Course Direction KTS MPH feet Rate Location/Type
01:38PM 47.5461 -122.3181 335° Northwest 168 193 1,700  Level Seattle Center
01:38PM 47.5647 -122.3308 335° Northwest 182 209 2,300 1,800 Climbing Seattle Center
01:39PM 47.6111 -122.3906 319° Northwest 248 285 4,300 1,800 Climbing Seattle Center
01:40PM 47.6589 -122.4661 313° West 282 325 6,000 780 Climbing Seattle Center
01:41PM 47.7331 -122.4253 20° North 267 307 6,000  Level Seattle Center
01:42PM 47.7997 -122.3719 28° Northeast 271 312 6,000  Level Seattle Center
01:43PM 47.8331 -122.3456 28° Northeast 272 313 6,000  Level Seattle Center
01:43PM 47.8664 -122.3186 28° Northeast 274 315 6,000  Level Seattle Center
01:43PM 47.8856 -122.3039 27° Northeast 274 315 6,000  Level Seattle Center
01:44PM 47.9014 -122.3017 North 270 311 6,000  Level Seattle Center
01:45PM 47.9483 -122.3639 318° Northwest 272 313 6,000 -360 Level Seattle Center
01:46PM 47.9828 -122.4706 296° West 271 312 5,400 -720 Descending Seattle Center
01:47PM 48.0156 -122.5714 296° West 267 307 4,600 -480 Descending Seattle Center
01:48PM 48.0525 -122.6631 301° West 265 305 4,500 -360 Descending Seattle Center
01:49PM 48.1117 -122.7569 313° West 266 306 3,800 -240 Descending Seattle Center
01:50PM 48.1331 -122.8203 297° West 232 267 4,100 240 Climbing Seattle Center
01:50PM 48.1428 -122.8408 305° West 237 273 4,100 -300 Level Seattle Center
01:51PM 48.1678 -122.9136 297° West 206 237 3,800 -240 Descending Seattle Center
01:52PM 48.1919 -122.9731 301° West 157 181 3,700 -120 Descending Seattle Center
01:52PM 48.1939 -122.9772 305° West 167 192 3,700 -120 Level Seattle Center
01:53PM 48.2133 -123.0308 299° West 165 190 3,600 -120 Descending Seattle Center
01:53PM 48.2183 -123.0289 15° North 171 197 3,600 60 Level Seattle Center
01:54PM 48.2508 -123.0781 315° West 161 185 3,700  Climbing Seattle Center
01:55PM 48.2533 -123.1281 274° West 156 180 3,600 -60 Descending Seattle Center
01:56PM 48.2211 -123.1331 186° South 156 180 3,600 180 Level Seattle Center
01:57PM 48.2142 -123.1936 260° West 150 173 4,000 360 Climbing Seattle Center
01:58PM 48.2078 -123.2569 261° West 151 174 4,400 540 Climbing Seattle Center
01:59PM 48.2008 -123.3175 260° West 153 176 5,100 420 Climbing Seattle Center
02:00PM 48.1889 -123.3939 257° West 155 178 5,400 180 Climbing Seattle Center
02:01PM 48.1875 -123.4511 268° West 154 177 5,600 420 Climbing Seattle Center
02:02PM 48.1922 -123.5150 276° West 163 188 6,200 780 Climbing Seattle Center
02:03PM 48.2006 -123.5933 279° West 207 238 7,100 600 Climbing Seattle Center
02:04PM 48.2100 -123.6944 278° West 213 245 7,500 180 Climbing Seattle Center
02:05PM 48.1892 -123.7722 248° West 232 267 7,600  Climbing Seattle Center
02:06PM 48.1889 -123.6994 90° East 243 280 7,600  Level Seattle Center
02:07PM 48.2167 -123.7669 302° West 216 249 7,700  Climbing Seattle Center
02:08PM 48.2236 -123.8494 277° West 213 245 7,700  Level Seattle Center
02:09PM 48.2306 -123.9319 277° West 219 252 7,700 -120 Level Seattle Center
02:10PM 48.2361 -124.0283 275° West 255 293 7,500 -120 Descending Seattle Center
02:11PM 48.2428 -124.1097 277° West 240 276 7,500 1,080 Level Seattle Center
02:12PM 48.2669 -124.2472 285° West 259 298 9,800 2,460 Climbing Seattle Center
02:13PM 48.2733 -124.3242 277° West 260 299 12,600 2,400 Climbing Seattle Center
02:14PM 48.2836 -124.4511 277° West 285 328 14,400 1,800 Climbing Seattle Center
02:15PM 48.2317 -124.5772 238° Southwest 347 399 16,400 1,020 Climbing Seattle Center
02:16PM 48.1406 -124.5228 158° South 393 452 16,500  Climbing Seattle Center
02:17PM 48.1422 -124.3514 89° East 414 476 16,500 120 Level Seattle Center
02:18PM 48.2478 -124.2775 25° Northeast 401 461 16,800 960 Climbing Seattle Center
02:19PM 48.2881 -124.4181 293° West 385 443 18,500 1,500 Climbing Seattle Center
02:20PM 48.3019 -124.5597 278° West 315 362 19,900 720 Climbing Seattle Center
02:21PM 48.3164 -124.7044 279° West 332 382 20,000 720 Climbing Seattle Center
02:22PM 48.3328 -124.8875 278° West 399 459 21,500 1,800 Climbing Seattle Center
02:23PM 48.3458 -125.0261 278° West 389 448 23,800 1,800 Climbing Seattle Center
02:24PM 48.3589 -125.1897 277° West 392 451 25,000 540 Climbing Seattle Center
02:25PM 48.3536 -125.3322 267° West 353 406 25,000  Level Seattle Center
02:26PM 48.3489 -125.4475 267° West 294 338 25,000  Level Seattle Center
02:26PM 48.3475 -125.4944 267° West 266 306 25,000  Level Seattle Center
02:27PM 48.3461 -125.5575 268° West 275 316 25,000  Level Seattle Center
02:27PM 48.3436 -125.6119 266° West 266 306 25,000  Level Seattle Center
02:28PM 48.3422 -125.6686 268° West 268 308 25,000  Level Seattle Center
02:28PM 48.3425 -125.7147 271° West 269 310 25,000  Level Seattle Center
02:29PM 48.3397 -125.7794 266° West 268 308 25,000  Level Seattle Center
02:29PM 48.3408 -125.8244 272° West 266 306 25,000  Level Seattle Center
02:30PM 48.3381 -125.9075 267° West 260 299 25,000  Level Seattle Center
02:31PM 48.3353 -126.0167 268° West 260 299 25,000  Level Seattle Center
02:32PM 48.3342 -126.1325 269° West 270 311 25,000  Level Seattle Center
02:33PM 48.3014 -126.2269 242° Southwest 269 310 25,000  Level Seattle Center
02:34PM 48.2561 -126.3208 234° Southwest 273 314 25,000  Level Seattle Center
02:35PM 48.1356 -126.3100 177° South 363 418 25,000 -60 Level Seattle Center
02:36PM 48.0081 -126.2869 173° South 456 525 24,900 360 Descending Seattle Center
02:37PM 47.8697 -126.2164 161° South 511 588 25,800 240 Climbing Seattle Center
02:38PM 47.7047 -126.1242 159° South 524 603 25,400 -480 Descending Seattle Center
02:39PM 47.5661 -126.0483 160° South 531 611 24,900 60 Descending Seattle Center
02:40PM 47.4275 -125.9842 163° South 526 605 25,600 1,620 Climbing Seattle Center
02:41PM 47.2975 -125.9131 160° South 508 585 28,300 2,040 Climbing Seattle Center
02:42PM 47.1644 -125.8403 160° South 510 587 29,800 2,040 Climbing Seattle Center
02:43PM 47.0306 -125.7653 159° South 516 594 32,500 2,460 Climbing Seattle Center
02:44PM 46.9039 -125.6953 159° South 498 573 34,900 1,200 Climbing Seattle Center
02:45PM 46.7883 -125.6333 160° South 448 516 35,000  Climbing Seattle Center
02:46PM 46.6833 -125.5753 159° South 410 472 35,000  Level Seattle Center
02:47PM 46.5669 -125.5878 184° South 360 414 35,000  Level Seattle Center
02:49PM 46.4981 -125.6872 225° Southwest 348 400 35,000  Level Seattle Center
02:50PM 46.4275 -125.7853 224° Southwest 350 403 35,000  Level Seattle Center
02:51PM 46.4167 -125.9089 263° West 337 388 35,000  Level Seattle Center
02:52PM 46.5014 -125.9514 341° North 352 405 35,000  Level Seattle Center
02:53PM 46.6006 -125.9247 10° North 365 420 35,000  Level Seattle Center
02:54PM 46.7011 -125.8961 11° North 368 423 35,000  Level Seattle Center
02:55PM 46.7992 -125.8706 10° North 363 418 35,000  Level Seattle Center
02:56PM 46.9031 -125.8439 10° North 376 433 35,000  Level Seattle Center
02:57PM 47.0228 -125.8136 10° North 429 494 35,000 -60 Level Seattle Center
02:58PM 47.1744 -125.8264 357° North 455 524 34,900  Descending Seattle Center
02:59PM 47.2853 -125.9103 333° Northwest 455 524 35,000  Climbing Seattle Center
03:00PM 47.2997 -126.0731 278° West 436 502 35,000  Level Seattle Center
03:01PM 47.2006 -126.1867 218° Southwest 482 555 35,000 -60 Level Seattle Center
03:02PM 47.0642 -126.2447 196° South 508 585 34,900 -60 Descending Seattle Center
03:03PM 46.9283 -126.3028 196° South 511 588 34,900  Level Seattle Center
03:04PM 46.7928 -126.3603 196° South 509 586 35,000 120 Climbing Seattle Center
03:05PM 46.6547 -126.4214 197° South 517 595 35,200 120 Climbing Seattle Center
03:06PM 46.5167 -126.4781 196° South 519 597 35,300 -300 Climbing Seattle Center
03:07PM 46.3744 -126.4214 165° South 535 616 34,700 120 Descending Seattle Center
03:08PM 46.2969 -126.2178 119° Southeast 550 633 35,600 1,020 Climbing Seattle Center
03:09PM 46.3506 -125.9931 71° East 530 610 36,800 660 Climbing Seattle Center
03:10PM 46.4756 -125.9167 23° Northeast 502 578 37,000  Climbing Seattle Center
03:11PM 46.6086 -125.9233 358° North 482 555 36,900 -900 Descending Seattle Center
03:12PM 46.7444 -125.9336 357° North 487 560 35,200 -1,140 Descending Seattle Center
03:13PM 46.8822 -125.9453 357° North 493 567 34,600 -120 Descending Seattle Center
03:14PM 47.0194 -125.9536 358° North 495 570 35,000 900 Climbing Seattle Center
03:15PM 47.1569 -125.9642 357° North 495 570 36,500 1,080 Climbing Seattle Center
03:16PM 47.2903 -125.9728 357° North 485 558 37,300 780 Climbing Seattle Center
03:17PM 47.4253 -125.9842 357° North 485 558 38,200 720 Climbing Seattle Center
03:18PM 47.5581 -125.9906 358° North 479 551 38,800 540 Climbing Seattle Center
03:19PM 47.7172 -126.0017 357° North 477 549 39,300 420 Climbing Seattle Center
03:20PM 47.8414 -126.0572 343° North 471 542 39,700 420 Climbing Seattle Center
03:21PM 47.9111 -126.2081 305° West 460 529 40,200 480 Climbing Seattle Center
03:22PM 47.9283 -126.3917 278° West 456 525 40,700 480 Climbing Seattle Center
03:23PM 47.9431 -126.5789 277° West 454 522 41,200 480 Climbing Seattle Center
03:24PM 47.9586 -126.7628 277° West 451 519 41,700 480 Climbing Seattle Center
03:25PM 47.9728 -126.9478 277° West 450 518 42,200 480 Climbing Seattle Center
03:26PM 47.9511 -127.1250 260° West 447 514 42,700 360 Climbing Seattle Center
03:27PM 47.8539 -127.2500 221° Southwest 463 533 43,000 120 Climbing Seattle Center
03:28PM 47.7186 -127.2711 186° South 489 563 43,000  Level Seattle Center
03:29PM 47.5831 -127.2058 162° South 511 588 43,000 -60 Level Seattle Center
03:30PM 47.4206 -127.1289 162° South 515 593 42,900 -120 Descending Seattle Center
03:31PM 47.2817 -127.0664 163° South 520 598 42,800 -360 Descending Seattle Center
03:32PM 47.1425 -127.0006 162° South 525 604 42,200 -840 Descending Seattle Center
03:33PM 47.0006 -126.9381 163° South 532 612 41,100 -300 Descending Seattle Center
03:34PM 46.8644 -126.8750 162° South 522 601 41,700 240 Climbing Seattle Center
03:35PM 46.7267 -126.8111 162° South 520 598 41,700 60 Level Seattle Center
03:36PM 46.5883 -126.7456 162° South 523 602 41,900 180 Climbing Seattle Center
03:37PM 46.4544 -126.6653 158° South 527 606 42,100 180 Climbing Seattle Center
03:38PM 46.3633 -126.4983 128° Southeast 539 620 42,300 180 Climbing Seattle Center
03:39PM 46.3481 -126.2875 96° East 542 624 42,500 180 Climbing Seattle Center
03:41PM 46.3992 -126.0431 73° East 531 611 42,700 180 Climbing Seattle Center
03:42PM 46.4672 -125.8606 62° Northeast 528 608 42,900 180 Climbing Seattle Center
03:43PM 46.5817 -125.7603 31° Northeast 494 568 43,100 60 Climbing Seattle Center
03:44PM 46.7117 -125.7747 356° North 469 540 43,100 -300 Level Seattle Center
03:45PM 46.8378 -125.8169 347° North 467 537 42,500 -1,320 Descending Seattle Center
03:46PM 46.9692 -125.8628 347° North 477 549 40,500 -120 Descending Seattle Center
03:47PM 47.0972 -125.9122 345° North 477 549 42,300 1,080 Climbing Seattle Center
03:48PM 47.2189 -125.9497 348° North 457 526 42,800 300 Climbing Seattle Center
03:49PM 47.3439 -125.9886 348° North 459 528 43,000 60 Climbing Seattle Center
03:50PM 47.4728 -126.0317 347° North 471 542 43,000  Level Seattle Center
03:51PM 47.6017 -126.0731 348° North 472 543 43,000 -300 Level Seattle Center
03:52PM 47.7278 -126.1147 347° North 467 537 42,400 -120 Descending Seattle Center
03:53PM 47.8769 -126.1653 347° North 461 531 42,800 240 Climbing Seattle Center
03:54PM 47.9992 -126.2250 342° North 466 536 42,900 60 Climbing Seattle Center
03:55PM 48.0714 -126.3789 305° West 462 532 43,000  Climbing Seattle Center
03:56PM 48.0903 -126.5675 279° West 460 529 43,000  Level Seattle Center
03:57PM 48.0561 -126.7447 254° West 463 533 43,000 -120 Level Seattle Center
03:58PM 47.9481 -126.8550 214° Southwest 470 541 42,800 -60 Descending Seattle Center
03:59PM 47.8244 -126.9300 202° Southwest 480 552 42,900  Climbing Seattle Center
04:00PM 47.7003 -126.9781 195° South 469 540 42,900  Level Seattle Center
04:01PM 47.5756 -126.9447 170° South 458 527 43,000  Climbing Seattle Center
04:02PM 47.4292 -126.8986 168° South 452 520 43,000  Level Seattle Center
04:03PM 47.3094 -126.8589 167° South 446 513 43,000 -60 Level Seattle Center
04:04PM 47.1875 -126.8178 167° South 449 517 42,900 -60 Descending Seattle Center
04:05PM 47.0647 -126.7778 167° South 451 519 42,900 60 Level Seattle Center
04:06PM 46.9383 -126.7364 167° South 464 534 43,100 240 Climbing Seattle Center
04:07PM 46.8108 -126.6944 167° South 470 541 43,500  Climbing Seattle Center
04:08PM 46.6836 -126.6525 167° South 471 542 43,200 -540 Descending Seattle Center
04:09PM 46.5628 -126.6142 168° South 454 522 42,500 -840 Descending Seattle Center
04:10PM 46.4433 -126.5647 164° South 450 518 41,500 -780 Descending Seattle Center
04:11PM 46.3656 -126.4022 125° Southeast 498 573 41,000 -240 Descending Seattle Center
04:12PM 46.4058 -126.1664 76° East 526 605 41,100 240 Climbing Seattle Center
04:13PM 46.5286 -126.0892 23° Northeast 505 581 41,500 180 Climbing Seattle Center
04:14PM 46.6600 -126.1014 356° North 478 550 41,500 -240 Level Seattle Center
04:15PM 46.7922 -126.1197 355° North 478 550 41,100 -540 Descending Seattle Center
04:16PM 46.9231 -126.1364 355° North 475 547 40,500 -1,080 Descending Seattle Center
04:17PM 47.0531 -126.1517 355° North 470 541 39,000 -2,460 Descending Seattle Center
04:18PM 47.1833 -126.1675 355° North 469 540 35,500 -3,540 Descending Seattle Center
04:19PM 47.3186 -126.1842 355° North 483 556 31,900 -3,300 Descending Seattle Center
04:20PM 47.4522 -126.2014 355° North 483 556 28,800 -2,640 Descending Seattle Center
04:21PM 47.5800 -126.2158 356° North 470 541 26,600 -3,060 Descending Seattle Center
04:22PM 47.6903 -126.2706 342° North 440 506 22,600 -3,300 Descending Seattle Center
04:23PM 47.7472 -126.4083 302° West 402 463 20,000 -1,380 Descending Seattle Center
04:24PM 47.7933 -126.5286 300° West 353 406 19,900  Descending Seattle Center
04:25PM 47.7975 -126.6428 273° West 274 315 20,000  Climbing Seattle Center
04:26PM 47.7222 -126.6133 165° South 279 321 20,000  Level Seattle Center
04:27PM 47.7481 -126.5178 68° East 293 337 20,000  Level Seattle Center
04:28PM 47.8033 -126.4553 37° Northeast 311 358 20,000  Level Seattle Center
04:29PM 47.7392 -126.3522 133° Southeast 363 418 20,000 -60 Level Seattle Center
04:30PM 47.6275 -126.2564 150° Southeast 443 510 19,900  Descending Seattle Center
04:31PM 47.5078 -126.1556 150° Southeast 483 556 20,000  Climbing Seattle Center
04:32PM 47.3900 -126.0531 149° Southeast 491 565 20,000 1,080 Level Seattle Center
04:33PM 47.2717 -125.9511 150° Southeast 494 568 22,300 1,440 Climbing Seattle Center
04:34PM 47.1761 -125.8358 141° Southeast 467 537 23,000 300 Climbing Seattle Center
04:35PM 47.1483 -125.6506 102° East 467 537 23,000 -720 Level Seattle Center
04:37PM 47.1169 -125.4289 102° East 465 535 21,600 -1,680 Descending Seattle Center
04:38PM 47.0900 -125.2533 103° East 451 519 19,700 -2,520 Descending Seattle Center
04:39PM 47.0642 -125.0744 102° East 450 518 16,500 -2,280 Descending Seattle Center
04:40PM 47.0419 -124.8900 100° East 460 529 15,100 -660 Descending Seattle Center
04:41PM 47.0175 -124.7047 101° East 465 535 15,200  Climbing Seattle Center
04:42PM 46.9986 -124.5197 98° East 464 534 15,100 -60 Descending Seattle Center
04:43PM 46.9778 -124.3772 102° East 381 438 15,100  Level Seattle Center
04:44PM 46.9636 -124.2739 101° East 284 327 15,100  Level Seattle Center
04:45PM 46.9547 -124.1983 100° East 225 259 15,200  Climbing Seattle Center
04:46PM 46.9450 -124.1339 102° East 183 211 15,200 -60 Level Seattle Center
04:47PM 46.9375 -124.0469 97° East 180 207 15,100 -60 Descending Seattle Center
04:48PM 46.9297 -123.9706 98° East 188 216 15,100  Level Seattle Center
04:49PM 46.9250 -123.8992 96° East 186 214 15,200  Climbing Seattle Center
04:50PM 46.9192 -123.8269 97° East 183 211 15,200  Level Seattle Center
04:51PM 46.9108 -123.7511 99° East 188 216 15,200  Level Seattle Center
04:52PM 46.9056 -123.6775 96° East 185 213 15,200  Level Seattle Center
04:53PM 46.8975 -123.5867 97° East 189 217 15,200  Level Seattle Center
04:54PM 46.8911 -123.5083 97° East 195 224 15,200 -60 Level Seattle Center
04:55PM 46.8819 -123.4183 98° East 221 254 15,100 -60 Descending Seattle Center
04:56PM 46.8739 -123.3378 98° East 206 237 15,100  Level Seattle Center
04:57PM 46.8675 -123.2614 97° East 195 224 15,100  Level Seattle Center
04:58PM 46.8567 -123.1839 102° East 197 227 15,100  Level Seattle Center
04:59PM 46.8164 -123.1203 133° Southeast 191 220 15,100  Level Seattle Center
05:00PM 46.7819 -123.0628 131° Southeast 190 219 15,100 -240 Level Seattle Center
05:01PM 46.7561 -122.9872 117° Southeast 203 234 14,700 -60 Descending Seattle Center
05:02PM 46.7492 -122.9011 97° East 214 246 15,000 180 Climbing Seattle Center
05:03PM 46.7442 -122.8261 96° East 193 222 15,100  Climbing Seattle Center
05:04PM 46.7381 -122.7478 96° East 193 222 15,100  Level Seattle Center
05:05PM 46.7347 -122.6619 93° East 198 228 15,100  Level Seattle Center
05:06PM 46.7297 -122.5958 96° East 195 224 15,100  Level Seattle Center
05:07PM 46.7233 -122.5044 96° East 192 221 15,100  Level Seattle Center
05:08PM 46.7183 -122.4267 95° East 195 224 15,100  Level Seattle Center
05:09PM 46.7133 -122.3519 96° East 189 217 15,100  Level Seattle Center
05:10PM 46.7081 -122.2750 96° East 192 221 15,100  Level Seattle Center
05:11PM 46.7031 -122.1933 95° East 202 232 15,200  Climbing Seattle Center
05:12PM 46.6969 -122.1089 96° East 210 242 15,100 -60 Descending Seattle Center
05:13PM 46.6914 -122.0261 96° East 209 241 15,100  Level Seattle Center
05:14PM 46.6847 -121.9231 95° East 218 251 15,100  Level Seattle Center
05:15PM 46.6756 -121.8125 97° East 270 311 15,100  Level Seattle Center
05:16PM 46.6672 -121.6900 96° East 302 348 15,100  Level Seattle Center
05:17PM 46.6583 -121.5764 96° East 305 351 15,200  Climbing Seattle Center
05:18PM 46.6475 -121.4342 96° East 367 422 15,100 -60 Descending Seattle Center
05:19PM 46.6333 -121.2533 96° East 447 514 15,100 -60 Level Seattle Center
05:20PM 46.6181 -121.0297 96° East 463 533 15,000 -60 Descending Seattle Center
05:21PM 46.6058 -120.8533 96° East 441 507 15,000  Level Seattle Center
05:22PM 46.5906 -120.6775 97° East 438 504 15,000  Level Seattle Center
05:23PM 46.5744 -120.4994 97° East 444 511 15,000  Level Seattle Center
05:24PM 46.6194 -120.3372 68° East 444 511 15,000  Level Seattle Center
05:25PM 46.6886 -120.1914 55° Northeast 439 505 15,000 -180 Level Seattle Center
05:26PM 46.7561 -120.0419 57° Northeast 442 509 14,700 -1,560 Descending Seattle Center
05:27PM 46.8208 -119.9078 55° Northeast 424 488 11,900 -1,920 Descending Seattle Center
05:28PM 46.8861 -119.7700 55° Northeast 414 476 10,800 -1,020 Descending Seattle Center
05:29PM 46.9403 -119.6531 56° Northeast 332 382 9,900 -1,620 Descending Seattle Center
05:30PM 46.9906 -119.5444 56° Northeast 297 342 7,600 -2,280 Descending Seattle Center
05:32PM 47.0237 -119.4607 60° Northeast  Level FlightAware Approximate
05:39PM 47.2000 -119.3167 341° North  Level FlightAware Approximate
05:40PM 47.2086 -119.3191 341° North  Level Estimated
05:41PM 47.2086 -119.3191 341° North  Level Estimated
05:42PM 47.2086 -119.3191 341° North  Level Estimated
05:43PM 47.2086 -119.3191 341° North  Level Estimated
05:44PM 47.2086 -119.3191 341° North  Level Estimated
05:45PM 47.2086 -119.3191 341° North  Level Estimated
05:46PM 47.2086 -119.3191 341° North  Level Estimated
05:47PM 47.2086 -119.3191 341° North  Level Estimated
05:48PM 47.2086 -119.3191 341° North  Level Estimated
05:49PM 47.2086 -119.3191 341° North  Level Estimated
05:50PM 47.2086 -119.3191 341° North  Level Estimated
05:51PM 47.2086 -119.3191 341° North  Level Estimated
05:52PM 47.2086 -119.3191 341° North  Level Estimated